Time;durP1;ratioP1;P1;durP2;ratioP2;P2;SDS_P1;SDS_P2;PMS_P1;PMS_P2;Temp;Humidity;BMP_temperature;BMP_pressure;BME280_temperature;BME280_humidity;BME280_pressure;Samples;Min_cycle;Max_cycle;Signal;HPM_P1;HPM_P2
2022/01/12 00:00:52;;;;;;;5.00;2.45;;;;;;;-9.75;69.95;100933.81;5051751;28;20191;-57
2022/01/12 00:03:18;;;;;;;3.10;2.45;;;;;;;-9.81;68.12;100939.22;5046094;28;20021;-56
2022/01/12 00:05:44;;;;;;;3.60;2.55;;;;;;;-9.81;69.54;100930.84;5059553;28;20057;-57
2022/01/12 00:08:09;;;;;;;5.72;2.80;;;;;;;-9.83;68.69;100938.22;5046157;28;20068;-57
2022/01/12 00:10:35;;;;;;;4.70;2.45;;;;;;;-9.96;67.40;100940.47;5046381;28;20096;-56
2022/01/12 00:13:01;;;;;;;3.67;2.15;;;;;;;-10.23;67.54;100943.38;5046101;28;20093;-56
2022/01/12 00:15:27;;;;;;;4.18;2.38;;;;;;;-10.18;67.06;100928.72;5041339;28;20029;-56
2022/01/12 00:17:52;;;;;;;2.67;1.98;;;;;;;-10.16;67.70;100947.28;5044814;28;20333;-56
2022/01/12 00:20:18;;;;;;;7.22;2.63;;;;;;;-10.14;67.57;100943.25;5045118;28;20055;-56
2022/01/12 00:22:44;;;;;;;3.05;2.22;;;;;;;-9.99;67.17;100942.75;5042233;28;20033;-56
2022/01/12 00:33:12;;;;;;;4.35;2.70;;;;;;;-10.02;67.46;100929.97;5049208;28;20053;-58
2022/01/12 00:35:43;;;;;;;3.83;2.60;;;;;;;-9.99;68.52;100958.66;5029587;28;20052;-58
2022/01/12 00:38:10;;;;;;;3.60;2.40;;;;;;;-10.07;68.17;100964.69;5044878;28;20033;-58
2022/01/12 00:40:41;;;;;;;4.63;2.80;;;;;;;-10.41;67.60;100949.41;5045783;28;20065;-57
2022/01/12 00:43:07;;;;;;;5.25;2.53;;;;;;;-10.25;69.70;100949.00;5045199;28;20033;-58
2022/01/12 00:45:34;;;;;;;3.33;2.17;;;;;;;-10.18;67.26;100937.88;5055853;28;20432;-57
2022/01/12 00:47:59;;;;;;;4.90;2.70;;;;;;;-10.07;67.56;100938.00;5045480;28;20076;-56
2022/01/12 00:50:25;;;;;;;3.67;2.40;;;;;;;-10.09;68.98;100937.00;5045504;28;20033;-58
2022/01/12 00:52:53;;;;;;;3.60;2.45;;;;;;;-10.01;68.89;100927.59;5051762;28;20102;-58
2022/01/12 00:55:18;;;;;;;4.00;2.40;;;;;;;-9.97;68.30;100929.59;5054169;28;20031;-58
2022/01/12 00:57:44;;;;;;;4.95;2.75;;;;;;;-10.10;66.83;100912.69;5044700;28;20033;-58
2022/01/12 01:00:11;;;;;;;3.53;2.42;;;;;;;-10.06;66.94;100927.22;5045527;28;20045;-59
2022/01/12 01:02:36;;;;;;;4.80;2.47;;;;;;;-10.04;67.37;100934.00;5044338;28;20051;-58
2022/01/12 01:05:03;;;;;;;5.50;2.53;;;;;;;-10.13;68.04;100939.09;5050143;28;20029;-58
2022/01/12 01:07:28;;;;;;;3.35;2.50;;;;;;;-10.08;69.12;100936.22;5045268;28;20068;-58
2022/01/12 01:10:03;;;;;;;5.13;2.45;;;;;;;-10.23;68.99;100927.50;5054907;28;20033;-58
2022/01/12 01:12:29;;;;;;;3.38;2.50;;;;;;;-10.24;67.28;100938.25;5041052;28;20038;-58
2022/01/12 01:15:05;;;;;;;4.43;2.30;;;;;;;-10.39;68.97;100937.88;5041637;28;20029;-58
2022/01/12 01:25:52;;;;;;;3.83;2.53;;;;;;;-10.60;68.04;100932.88;5045006;28;20037;-58
2022/01/12 01:28:18;;;;;;;3.55;2.60;;;;;;;-10.90;70.03;100932.78;5044664;28;20021;-57
2022/01/12 01:30:45;;;;;;;4.15;2.38;;;;;;;-10.94;68.77;100905.03;5052444;28;20167;-57
2022/01/12 01:33:14;;;;;;;4.70;2.78;;;;;;;-10.78;69.13;100947.22;5046467;28;20030;-58
2022/01/12 01:35:44;;;;;;;3.60;2.55;;;;;;;-10.91;70.60;100934.44;5043279;28;20024;-57
2022/01/12 01:38:10;;;;;;;3.95;2.53;;;;;;;-10.83;69.26;100940.06;5030617;28;20207;-57
2022/01/12 01:40:37;;;;;;;4.82;2.22;;;;;;;-11.11;68.87;100870.22;5044597;28;20071;-58
2022/01/12 01:53:51;;;;;;;5.65;2.88;;;;;;;-10.44;68.71;100936.66;5027199;28;20033;-57
2022/01/12 01:56:19;;;;;;;3.92;2.58;;;;;;;-10.39;68.67;100922.88;5054479;28;20068;-57
2022/01/12 01:58:46;;;;;;;3.70;2.30;;;;;;;-10.26;70.30;100925.59;5042389;28;20065;-57
2022/01/12 02:01:11;;;;;;;4.07;2.75;;;;;;;-10.42;68.65;100917.59;5042971;28;20025;-56
2022/01/12 02:03:37;;;;;;;3.60;2.38;;;;;;;-10.43;68.89;100918.34;5055733;28;20344;-57
2022/01/12 02:06:07;;;;;;;5.07;2.50;;;;;;;-10.71;68.93;100918.59;5051034;28;20344;-57
2022/01/12 02:08:33;;;;;;;3.58;2.63;;;;;;;-10.61;67.86;100920.22;5039513;28;20253;-56
2022/01/12 02:10:59;;;;;;;4.75;2.70;;;;;;;-10.52;70.15;100930.13;5040941;28;20064;-57
2022/01/12 02:13:25;;;;;;;5.03;2.58;;;;;;;-10.51;68.65;100916.88;5054229;28;20028;-56
2022/01/12 02:15:53;;;;;;;3.97;2.80;;;;;;;-10.69;67.78;100917.06;5047318;28;20025;-57
2022/01/12 02:19:05;;;;;;;5.15;2.85;;;;;;;-10.55;70.36;100904.84;5027158;28;20092;-56
2022/01/12 02:40:27;;;;;;;6.00;3.20;;;;;;;-10.57;67.24;100902.22;5042231;28;20033;-57
2022/01/12 02:43:07;;;;;;;6.47;2.67;;;;;;;-10.57;68.01;100901.31;5045226;28;20086;-57
2022/01/12 02:53:41;;;;;;;5.43;3.10;;;;;;;-10.94;70.25;100879.16;5045533;28;20035;-58
2022/01/12 02:56:10;;;;;;;4.72;2.67;;;;;;;-10.79;68.53;100894.53;5046485;28;20022;-57
2022/01/12 02:58:37;;;;;;;4.82;2.90;;;;;;;-10.94;68.30;100892.53;5042167;28;20029;-57
2022/01/12 03:03:34;;;;;;;5.15;3.33;;;;;;;-10.88;69.29;100873.78;5042483;28;20357;-57
2022/01/12 03:06:03;;;;;;;7.13;3.05;;;;;;;-10.67;68.50;100884.66;5046138;28;20322;-56
2022/01/12 03:08:36;;;;;;;10.02;2.90;;;;;;;-10.69;69.87;100887.03;5042824;28;20307;-57
2022/01/12 03:11:02;;;;;;;3.35;2.53;;;;;;;-10.91;67.91;100878.50;5047515;28;20079;-58
2022/01/12 03:13:28;;;;;;;5.53;3.25;;;;;;;-10.91;69.07;100881.91;5052009;28;20044;-56
2022/01/12 03:15:53;;;;;;;4.97;3.08;;;;;;;-10.75;68.64;100884.03;5054144;28;20027;-57
2022/01/12 03:18:19;;;;;;;6.70;3.20;;;;;;;-11.00;68.87;100888.63;5053585;28;20021;-58
2022/01/12 03:20:45;;;;;;;4.57;3.30;;;;;;;-10.81;68.13;100881.91;5049283;28;20036;-57
2022/01/12 03:23:14;;;;;;;3.72;2.88;;;;;;;-10.80;69.18;100860.25;5059688;28;20025;-57
2022/01/12 03:25:40;;;;;;;6.82;3.15;;;;;;;-10.57;68.20;100874.69;5054225;28;20017;-57
2022/01/12 03:28:07;;;;;;;5.47;3.50;;;;;;;-10.64;68.40;100870.78;5050435;28;20195;-57
2022/01/12 03:30:41;;;;;;;7.20;3.40;;;;;;;-10.74;69.54;100872.41;5046638;28;20030;-56
2022/01/12 03:33:18;;;;;;;6.55;3.28;;;;;;;-10.71;69.78;100880.19;5050729;28;20329;-57
2022/01/12 03:36:12;;;;;;;8.13;4.57;;;;;;;-10.69;69.56;100862.03;5045805;28;20318;-58
2022/01/12 03:38:35;;;;;;;5.20;3.30;;;;;;;-11.01;67.12;100857.75;5060681;28;20372;-58
2022/01/12 03:41:01;;;;;;;7.40;3.75;;;;;;;-10.83;68.75;100867.50;5054901;28;20045;-58
2022/01/12 03:43:26;;;;;;;4.28;3.10;;;;;;;-11.02;67.11;100876.00;5046826;28;20021;-58
2022/01/12 03:45:52;;;;;;;4.93;3.30;;;;;;;-10.78;67.83;100867.16;5045731;28;20037;-58
2022/01/12 03:48:18;;;;;;;5.25;3.00;;;;;;;-10.75;68.51;100874.03;5053148;28;20040;-58
2022/01/12 03:50:43;;;;;;;5.40;3.03;;;;;;;-10.81;66.58;100873.53;5048628;28;20037;-57
2022/01/12 03:53:09;;;;;;;4.18;2.72;;;;;;;-10.76;66.78;100877.28;5046494;28;20080;-57
2022/01/12 03:55:34;;;;;;;5.45;3.20;;;;;;;-10.73;67.30;100882.53;5046432;28;20092;-57
2022/01/12 03:58:00;;;;;;;5.30;3.17;;;;;;;-10.73;66.01;100887.53;5045366;28;20157;-58
2022/01/12 04:00:26;;;;;;;5.50;2.80;;;;;;;-10.89;66.90;100880.38;5046482;28;20329;-58
2022/01/12 04:02:52;;;;;;;4.65;3.10;;;;;;;-11.01;67.61;100885.25;5046547;28;20068;-58
2022/01/12 04:08:18;;;;;;;6.85;3.90;;;;;;;-11.16;68.32;100871.44;5046219;28;20248;-55
2022/01/12 04:08:19;;;;;;;5.45;3.30;;;;;;;-11.13;66.82;100886.72;5053312;28;20084;-58
2022/01/12 04:10:44;;;;;;;6.18;3.28;;;;;;;-11.09;68.48;100876.22;5046229;28;20035;-56
2022/01/12 04:13:09;;;;;;;4.82;3.05;;;;;;;-10.95;69.05;100883.25;5052774;28;20029;-55
2022/01/12 04:15:35;;;;;;;4.78;3.22;;;;;;;-10.91;68.04;100876.91;5044478;28;20128;-56
2022/01/12 04:18:00;;;;;;;5.65;3.13;;;;;;;-10.76;68.27;100888.19;5052609;28;20035;-56
2022/01/12 04:20:26;;;;;;;6.30;3.45;;;;;;;-10.94;67.14;100880.00;5055637;28;20024;-57
2022/01/12 04:25:36;;;;;;;4.15;2.97;;;;;;;-10.91;68.32;100889.41;5046094;28;20024;-56
2022/01/12 04:28:01;;;;;;;5.60;3.35;;;;;;;-11.06;67.00;100890.63;5051937;28;20021;-58
2022/01/12 04:30:27;;;;;;;6.13;3.55;;;;;;;-10.93;68.86;100886.78;5050307;28;20029;-56
2022/01/12 04:32:52;;;;;;;5.40;3.47;;;;;;;-10.97;67.43;100889.75;5045151;28;20036;-57
2022/01/12 04:35:23;;;;;;;5.15;3.00;;;;;;;-11.20;67.75;100890.34;5045959;28;20411;-57
2022/01/12 04:37:50;;;;;;;7.20;3.30;;;;;;;-11.18;67.71;100890.47;5049919;28;20025;-57
2022/01/12 04:40:16;;;;;;;5.28;3.70;;;;;;;-11.29;67.11;100895.41;5045376;28;20261;-56
2022/01/12 04:42:42;;;;;;;8.30;3.63;;;;;;;-11.22;68.07;100891.81;5045753;28;20036;-56
2022/01/12 04:45:18;;;;;;;6.13;3.03;;;;;;;-11.05;68.71;100880.75;5045122;28;20092;-56
2022/01/12 04:48:00;;;;;;;4.93;3.17;;;;;;;-10.99;67.12;100888.75;5038000;28;20030;-56
2022/01/12 04:50:29;;;;;;;6.50;3.63;;;;;;;-11.11;67.24;100882.72;5045447;28;20025;-56
2022/01/12 04:52:55;;;;;;;7.55;3.20;;;;;;;-11.09;67.79;100887.84;5052691;28;20214;-56
2022/01/12 04:55:21;;;;;;;6.70;3.92;;;;;;;-11.01;67.51;100892.75;5044392;28;20025;-56
2022/01/12 04:57:47;;;;;;;4.63;3.10;;;;;;;-10.91;67.83;100891.00;5045267;28;20021;-56
2022/01/12 05:00:16;;;;;;;5.03;3.40;;;;;;;-11.39;67.56;100817.03;5045203;28;20024;-56
2022/01/12 05:13:41;;;;;;;4.03;2.75;;;;;;;-11.43;65.61;100815.00;5043786;28;20168;-56
2022/01/12 05:16:10;;;;;;;5.30;3.13;;;;;;;-11.14;66.04;100879.97;5044077;28;20241;-56
2022/01/12 05:18:36;;;;;;;5.45;3.42;;;;;;;-11.01;66.65;100891.88;5045226;28;20029;-56
2022/01/12 05:21:02;;;;;;;5.65;3.40;;;;;;;-11.05;67.59;100884.88;5045024;28;20048;-56
2022/01/12 05:23:28;;;;;;;4.63;3.13;;;;;;;-11.08;65.53;100889.63;5048369;28;20018;-56
2022/01/12 05:25:54;;;;;;;6.07;3.50;;;;;;;-10.95;67.34;100889.91;5047355;28;20041;-56
2022/01/12 05:28:21;;;;;;;8.13;2.75;;;;;;;-11.77;67.56;100808.03;5051286;28;20052;-56
2022/01/12 05:30:48;;;;;;;6.15;3.17;;;;;;;-11.14;66.77;100888.34;5050780;28;20104;-56
2022/01/12 05:33:14;;;;;;;6.28;3.85;;;;;;;-11.30;65.77;100876.19;5044149;28;20025;-56
2022/01/12 05:35:41;;;;;;;6.70;3.40;;;;;;;-11.24;67.20;100897.41;5044250;28;20024;-56
2022/01/12 05:38:08;;;;;;;5.28;2.90;;;;;;;-11.33;67.87;100893.41;5042830;28;20059;-56
2022/01/12 05:40:35;;;;;;;5.68;3.53;;;;;;;-11.22;66.58;100894.31;5043997;28;20049;-57
2022/01/12 05:43:01;;;;;;;6.85;3.80;;;;;;;-11.45;68.11;100882.38;5032832;28;20214;-56
2022/01/12 05:45:32;;;;;;;7.28;3.85;;;;;;;-11.14;67.02;100890.84;5042062;28;20029;-56
2022/01/12 05:50:24;;;;;;;6.53;3.83;;;;;;;-11.18;67.24;100881.31;5045963;28;20049;-56
2022/01/12 05:52:50;;;;;;;6.22;3.45;;;;;;;-11.21;67.08;100881.06;5052695;28;20040;-55
2022/01/12 05:55:16;;;;;;;6.50;3.53;;;;;;;-11.50;68.13;100888.56;5054263;28;20036;-56
2022/01/12 05:57:42;;;;;;;5.05;3.40;;;;;;;-11.50;67.49;100883.56;5036591;28;20030;-56
2022/01/12 06:00:11;;;;;;;6.10;3.65;;;;;;;-11.68;68.08;100876.25;5045775;28;20067;-56
2022/01/12 06:02:37;;;;;;;5.25;3.30;;;;;;;-11.62;67.02;100891.78;5052938;28;20032;-56
2022/01/12 06:05:03;;;;;;;6.03;4.00;;;;;;;-11.53;68.28;100926.66;5048614;28;20044;-56
2022/01/12 06:07:29;;;;;;;5.30;3.03;;;;;;;-11.38;68.38;100888.78;5044975;28;20097;-56
2022/01/12 06:09:55;;;;;;;8.07;3.80;;;;;;;-11.30;67.52;100891.19;5056101;28;20234;-61
2022/01/12 06:12:21;;;;;;;7.57;3.78;;;;;;;-11.31;68.50;100883.53;5050138;28;20093;-56
2022/01/12 06:14:46;;;;;;;6.35;3.47;;;;;;;-11.23;67.18;100896.69;5044257;28;20029;-57
2022/01/12 06:17:12;;;;;;;8.35;4.22;;;;;;;-11.14;67.66;100898.34;5043811;28;20085;-57
2022/01/12 06:19:39;;;;;;;4.40;3.25;;;;;;;-11.18;65.89;100906.31;5045671;28;20036;-56
2022/01/12 06:22:05;;;;;;;4.45;3.50;;;;;;;-11.13;67.34;100910.09;5043850;28;20057;-56
2022/01/12 06:24:31;;;;;;;6.22;3.50;;;;;;;-11.20;66.66;100904.44;5046646;28;20298;-56
2022/01/12 06:26:58;;;;;;;7.25;4.10;;;;;;;-11.29;66.44;100910.41;5050480;28;20052;-56
2022/01/12 06:31:55;;;;;;;6.60;3.60;;;;;;;-11.22;66.76;100890.94;5043652;28;20092;-56
2022/01/12 06:34:21;;;;;;;7.35;4.07;;;;;;;-11.09;67.09;100883.72;5034605;28;20315;-56
2022/01/12 06:36:47;;;;;;;6.82;3.85;;;;;;;-11.32;67.19;100845.16;5048641;28;20044;-56
2022/01/12 06:39:17;;;;;;;5.22;4.03;;;;;;;-11.80;66.86;100827.72;5029150;28;20214;-55
2022/01/12 06:41:44;;;;;;;7.13;3.80;;;;;;;-11.49;66.47;100852.84;5041472;28;20032;-56
2022/01/12 06:44:14;;;;;;;8.02;4.50;;;;;;;-11.39;67.04;100892.88;5045175;28;20025;-56
2022/01/12 06:46:40;;;;;;;6.22;3.92;;;;;;;-11.25;65.65;100905.69;5041991;28;20031;-57
2022/01/12 06:49:05;;;;;;;5.25;3.58;;;;;;;-11.29;66.46;100899.53;5041358;28;20084;-56
2022/01/12 06:51:31;;;;;;;5.78;3.75;;;;;;;-11.09;67.51;100898.72;5042065;28;20106;-56
2022/01/12 06:53:57;;;;;;;6.35;3.85;;;;;;;-11.07;66.96;100914.75;5041713;28;20025;-57
2022/01/12 06:56:22;;;;;;;5.03;3.47;;;;;;;-11.33;67.50;100908.41;5042149;28;20043;-56
2022/01/12 06:58:48;;;;;;;7.35;4.05;;;;;;;-11.17;66.78;100899.69;5042041;28;20041;-57
2022/01/12 07:01:14;;;;;;;6.18;3.40;;;;;;;-10.97;66.36;100899.78;5041316;28;20210;-57
2022/01/12 07:03:40;;;;;;;7.45;3.97;;;;;;;-10.92;65.97;100892.66;5042721;28;20231;-56
2022/01/12 07:06:06;;;;;;;7.53;4.18;;;;;;;-11.07;65.01;100897.25;5048025;28;20025;-56
2022/01/12 07:08:34;;;;;;;5.85;3.75;;;;;;;-10.90;64.71;100895.28;5046093;28;20091;-56
2022/01/12 07:11:00;;;;;;;7.03;4.32;;;;;;;-10.96;65.63;100886.53;5048737;28;20024;-57
2022/01/12 07:13:26;;;;;;;8.35;4.63;;;;;;;-11.03;65.93;100899.25;5052711;28;20043;-57
2022/01/12 07:15:52;;;;;;;6.25;4.43;;;;;;;-11.03;64.62;100896.75;5036633;28;20021;-56
2022/01/12 07:18:21;;;;;;;7.70;5.30;;;;;;;-11.02;65.77;100883.50;5031816;28;20032;-57
2022/01/12 07:20:46;;;;;;;9.25;5.05;;;;;;;-10.83;63.87;100895.03;5054395;28;20025;-57
2022/01/12 07:23:12;;;;;;;6.53;4.15;;;;;;;-10.72;66.19;100910.94;5043141;28;20035;-57
2022/01/12 07:25:37;;;;;;;7.55;4.53;;;;;;;-10.62;65.96;100899.31;5042071;28;20039;-57
2022/01/12 07:28:03;;;;;;;7.57;4.50;;;;;;;-11.05;64.75;100890.75;5054129;28;20036;-58
2022/01/12 07:30:29;;;;;;;7.75;4.30;;;;;;;-11.38;65.23;100902.13;5049771;28;20083;-57
2022/01/12 07:32:54;;;;;;;8.15;4.00;;;;;;;-11.13;65.40;100895.09;5039958;28;20092;-57
2022/01/12 07:35:20;;;;;;;7.07;4.82;;;;;;;-11.18;66.27;100920.47;5037620;28;20128;-58
2022/01/12 07:37:47;;;;;;;7.45;4.35;;;;;;;-11.19;65.32;100904.56;5048194;28;20473;-57
2022/01/12 07:40:13;;;;;;;8.63;4.25;;;;;;;-11.01;66.77;100915.25;5042866;28;20041;-58
2022/01/12 07:42:40;;;;;;;7.95;5.00;;;;;;;-10.75;65.46;100911.56;5056580;28;20088;-58
2022/01/12 07:45:05;;;;;;;6.18;4.50;;;;;;;-10.81;64.68;100911.94;5042179;28;20053;-57
2022/01/12 07:47:32;;;;;;;6.97;4.22;;;;;;;-10.98;64.09;100903.00;5047368;28;20033;-58
2022/01/12 07:49:59;;;;;;;8.73;4.90;;;;;;;-11.00;65.11;100899.53;5044166;28;20083;-58
2022/01/12 07:52:25;;;;;;;12.05;5.20;;;;;;;-11.15;65.73;100891.59;5049351;28;20025;-57
2022/01/12 07:54:51;;;;;;;7.10;4.90;;;;;;;-11.31;65.59;100886.91;5049462;28;20219;-58
2022/01/12 07:57:17;;;;;;;9.80;4.43;;;;;;;-11.08;65.47;100880.47;5042653;28;20025;-57
2022/01/12 07:59:43;;;;;;;6.45;3.88;;;;;;;-11.08;66.29;100875.47;5052013;28;20074;-57
2022/01/12 08:02:10;;;;;;;9.32;4.13;;;;;;;-11.04;65.79;100866.59;5048082;28;20045;-58
2022/01/12 08:04:36;;;;;;;6.18;3.60;;;;;;;-10.80;66.29;100877.78;5046602;28;20025;-58
2022/01/12 08:07:03;;;;;;;6.10;4.32;;;;;;;-10.72;63.82;100875.94;5048944;28;20027;-57
2022/01/12 08:09:29;;;;;;;5.90;3.97;;;;;;;-10.59;65.03;100859.56;5055009;28;20061;-57
2022/01/12 08:11:54;;;;;;;7.22;3.80;;;;;;;-10.31;63.56;100865.88;5044907;28;20052;-57
2022/01/12 08:14:20;;;;;;;7.15;4.32;;;;;;;-10.33;64.35;100848.25;5045973;28;20021;-58
2022/01/12 08:16:46;;;;;;;8.18;4.00;;;;;;;-10.63;63.50;100849.13;5046226;28;20022;-57
2022/01/12 08:19:11;;;;;;;7.32;4.38;;;;;;;-10.53;63.51;100858.28;5044876;28;20025;-57
2022/01/12 08:21:37;;;;;;;6.72;4.13;;;;;;;-10.35;64.27;100856.41;5044579;28;20354;-57
2022/01/12 08:24:03;;;;;;;8.00;4.10;;;;;;;-10.38;62.31;100857.03;5045757;28;20021;-57
2022/01/12 08:26:28;;;;;;;7.63;4.70;;;;;;;-10.38;62.45;100844.50;5047056;28;20029;-58
2022/01/12 08:28:54;;;;;;;9.65;4.30;;;;;;;-10.67;61.12;100857.13;5045084;28;20021;-57
2022/01/12 08:31:22;;;;;;;6.90;4.43;;;;;;;-10.49;63.13;100852.78;5045472;28;20029;-58
2022/01/12 08:33:48;;;;;;;8.65;4.85;;;;;;;-10.16;62.46;100857.13;5046073;28;20091;-58
2022/01/12 08:36:15;;;;;;;7.93;4.30;;;;;;;-10.47;60.30;100853.78;5042057;28;20032;-56
2022/01/12 08:38:42;;;;;;;6.65;3.60;;;;;;;-11.07;61.38;100864.75;5043980;28;20040;-58
2022/01/12 08:41:07;;;;;;;6.43;4.00;;;;;;;-10.88;62.59;100856.28;5056036;28;20033;-57
2022/01/12 08:43:33;;;;;;;7.78;3.35;;;;;;;-11.11;62.52;100866.09;5045907;28;20052;-57
2022/01/12 08:45:59;;;;;;;7.05;4.25;;;;;;;-10.88;63.16;100869.66;5057358;28;20029;-57
2022/01/12 08:48:25;;;;;;;8.05;4.20;;;;;;;-11.23;63.30;100854.19;5054880;28;20221;-57
2022/01/12 08:50:50;;;;;;;5.50;3.65;;;;;;;-11.00;62.83;100872.00;5045278;28;20021;-57
2022/01/12 08:53:16;;;;;;;6.65;3.53;;;;;;;-10.43;62.11;100864.19;5049420;28;20078;-57
2022/01/12 08:55:42;;;;;;;7.85;4.43;;;;;;;-10.18;60.12;100857.75;5045090;28;20025;-58
2022/01/12 08:58:07;;;;;;;8.50;4.00;;;;;;;-9.99;59.61;100845.03;5044324;28;20033;-57
2022/01/12 09:00:33;;;;;;;5.53;3.75;;;;;;;-9.72;59.87;100838.81;5059673;28;20238;-58
2022/01/12 09:02:59;;;;;;;6.07;3.88;;;;;;;-9.92;58.30;100847.28;5058042;28;20098;-58
2022/01/12 09:05:24;;;;;;;5.78;3.35;;;;;;;-10.14;60.34;100849.72;5045673;28;20040;-58
2022/01/12 09:07:52;;;;;;;8.05;4.10;;;;;;;-9.68;59.01;100840.81;5039918;28;20071;-57
2022/01/12 09:10:18;;;;;;;8.82;3.95;;;;;;;-10.06;58.04;100841.16;5059174;28;20032;-58
2022/01/12 09:12:44;;;;;;;6.38;3.85;;;;;;;-9.90;59.57;100834.13;5040998;28;20033;-58
2022/01/12 09:15:11;;;;;;;6.32;3.75;;;;;;;-10.15;60.88;100838.81;5041608;28;20060;-57
2022/01/12 09:17:37;;;;;;;5.88;3.65;;;;;;;-10.29;60.81;100822.69;5050826;28;20313;-57
2022/01/12 09:20:04;;;;;;;6.15;3.55;;;;;;;-9.93;61.27;100826.38;5056129;28;20039;-57
2022/01/12 09:22:30;;;;;;;6.80;3.83;;;;;;;-9.71;59.51;100820.53;5047824;28;20234;-57
2022/01/12 09:24:55;;;;;;;7.68;4.40;;;;;;;-9.26;60.26;100808.91;5044784;28;20025;-56
2022/01/12 09:27:21;;;;;;;6.70;3.95;;;;;;;-9.07;59.15;100808.69;5059161;28;20135;-56
2022/01/12 09:29:46;;;;;;;6.45;4.35;;;;;;;-8.95;58.72;100786.13;5052669;28;20029;-56
2022/01/12 09:32:12;;;;;;;6.63;4.07;;;;;;;-8.75;57.42;100798.53;5034024;28;20030;-57
2022/01/12 09:34:38;;;;;;;6.10;4.03;;;;;;;-9.20;57.25;100804.38;5054961;28;20045;-57
2022/01/12 09:37:04;;;;;;;5.97;4.05;;;;;;;-9.30;57.83;100795.25;5047531;28;20060;-57
2022/01/12 09:39:31;;;;;;;8.88;4.25;;;;;;;-9.49;57.67;100789.59;5043408;28;20048;-57
2022/01/12 09:41:57;;;;;;;5.05;3.60;;;;;;;-9.64;58.44;100805.22;5043261;28;20041;-57
2022/01/12 09:44:34;;;;;;;6.32;4.20;;;;;;;-9.72;59.18;100792.09;5041949;28;20091;-57
2022/01/12 09:47:02;;;;;;;6.03;3.83;;;;;;;-9.58;58.34;100797.28;5043457;28;20071;-58
2022/01/12 09:49:28;;;;;;;6.53;4.07;;;;;;;-9.93;60.27;100793.81;5045385;28;20318;-56
2022/01/12 09:51:55;;;;;;;7.10;4.07;;;;;;;-10.01;60.15;100794.81;5054095;28;20253;-57
2022/01/12 09:54:21;;;;;;;7.10;4.35;;;;;;;-9.90;61.20;100786.53;5050593;28;20076;-57
2022/01/12 09:56:47;;;;;;;4.70;3.47;;;;;;;-9.68;59.06;100789.81;5044891;28;20098;-57
2022/01/12 09:59:13;;;;;;;6.00;4.25;;;;;;;-9.82;59.24;100787.09;5052610;28;20029;-57
2022/01/12 10:01:43;;;;;;;5.68;3.50;;;;;;;-10.27;60.70;100701.00;5041734;28;20284;-56
2022/01/12 10:04:09;;;;;;;5.63;3.90;;;;;;;-9.91;59.48;100782.25;5041273;28;20059;-57
2022/01/12 10:06:40;;;;;;;8.50;4.18;;;;;;;-9.74;58.87;100802.75;5043973;28;20030;-56
2022/01/12 10:09:06;;;;;;;6.65;3.97;;;;;;;-9.74;60.35;100785.22;5043369;28;20021;-57
2022/01/12 10:11:33;;;;;;;7.10;4.20;;;;;;;-9.74;61.72;100783.56;5042700;28;20041;-56
2022/01/12 10:14:00;;;;;;;6.55;4.00;;;;;;;-10.10;59.87;100726.50;5043076;28;20051;-57
2022/01/12 10:16:26;;;;;;;6.00;3.85;;;;;;;-9.93;59.60;100782.88;5043169;28;20026;-57
2022/01/12 10:18:56;;;;;;;7.35;4.03;;;;;;;-10.43;59.36;100764.03;5042035;28;20033;-57
2022/01/12 10:21:36;;;;;;;6.15;3.33;;;;;;;-10.28;59.70;100769.34;5042418;28;20033;-56
2022/01/12 10:24:09;;;;;;;6.47;3.63;;;;;;;-10.31;60.83;100790.78;5040347;28;20314;-58
2022/01/12 10:26:43;;;;;;;5.43;3.53;;;;;;;-10.65;61.69;100700.53;5058440;28;20206;-58
2022/01/12 10:29:29;;;;;;;9.15;5.32;;;;;;;-10.22;61.07;100773.97;5041962;28;20037;-57
2022/01/12 10:32:02;;;;;;;6.50;4.07;;;;;;;-10.28;62.08;100768.47;5052902;28;20326;-57
2022/01/12 10:34:28;;;;;;;8.63;4.60;;;;;;;-10.09;61.78;100769.19;5028290;28;20065;-57
2022/01/12 10:36:56;;;;;;;8.07;5.05;;;;;;;-10.03;60.40;100761.28;5043228;28;20064;-58
2022/01/12 10:39:27;;;;;;;6.60;4.35;;;;;;;-10.54;60.25;100701.38;5042861;28;20048;-57
2022/01/12 10:42:03;;;;;;;8.35;4.53;;;;;;;-10.07;60.12;100756.78;5041481;28;20104;-58
2022/01/12 10:44:41;;;;;;;8.80;4.20;;;;;;;-10.00;60.84;100778.16;5038996;28;20036;-59
2022/01/12 10:47:18;;;;;;;5.30;3.85;;;;;;;-10.42;60.98;100675.69;5050995;28;20100;-59
2022/01/12 10:49:53;;;;;;;6.45;4.15;;;;;;;-9.95;62.28;100741.81;5037695;28;20250;-57
2022/01/12 10:52:20;;;;;;;8.02;4.50;;;;;;;-10.09;60.77;100745.75;5043379;28;20041;-57
2022/01/12 10:54:48;;;;;;;9.10;4.80;;;;;;;-10.12;62.24;100738.00;5048716;28;20044;-56
2022/01/12 10:57:21;;;;;;;6.72;4.72;;;;;;;-10.15;62.80;100770.31;5043585;28;20029;-56
2022/01/12 11:00:00;;;;;;;8.45;4.75;;;;;;;-10.17;63.96;100742.66;5042839;28;20062;-57
2022/01/12 11:02:28;;;;;;;7.70;4.72;;;;;;;-9.90;63.85;100746.44;5046161;28;20036;-57
2022/01/12 11:04:55;;;;;;;8.57;5.40;;;;;;;-10.12;63.12;100728.84;5041187;28;20256;-57
2022/01/12 11:07:23;;;;;;;9.73;5.15;;;;;;;-9.98;62.00;100727.44;5041854;28;20230;-57
2022/01/12 11:09:50;;;;;;;9.00;5.70;;;;;;;-10.07;62.43;100726.72;5041766;28;20206;-56
2022/01/12 11:12:16;;;;;;;9.18;5.18;;;;;;;-10.26;62.84;100715.28;5042901;28;20025;-57
2022/01/12 11:14:41;;;;;;;11.48;5.00;;;;;;;-9.94;61.59;100731.06;5043811;28;20030;-56
2022/01/12 11:17:07;;;;;;;9.05;5.63;;;;;;;-10.04;61.48;100726.97;5043208;28;20042;-56
2022/01/12 11:19:35;;;;;;;8.60;5.28;;;;;;;-10.40;62.94;100700.84;5041945;28;20029;-56
2022/01/12 11:22:25;;;;;;;11.43;6.30;;;;;;;-10.51;62.39;100716.63;5038639;28;20080;-57
2022/01/12 11:24:53;;;;;;;8.45;5.30;;;;;;;-10.34;63.43;100701.31;5042409;28;20033;-57
2022/01/12 11:27:22;;;;;;;9.55;6.03;;;;;;;-10.10;63.38;100714.84;5049571;28;20029;-57
2022/01/12 11:29:48;;;;;;;12.07;5.90;;;;;;;-10.22;63.33;100701.34;5041707;28;20033;-57
2022/01/12 11:32:24;;;;;;;8.45;5.35;;;;;;;-10.61;62.86;100629.94;5039141;28;20075;-56
2022/01/12 11:35:00;;;;;;;10.10;5.65;;;;;;;-10.32;62.29;100654.69;5039800;28;20056;-56
2022/01/12 11:37:26;;;;;;;10.10;5.43;;;;;;;-10.08;60.97;100707.44;5045288;28;20044;-56
2022/01/12 11:39:52;;;;;;;12.20;6.53;;;;;;;-10.10;62.49;100691.44;5042431;28;20105;-56
2022/01/12 11:42:18;;;;;;;10.85;6.22;;;;;;;-10.23;61.91;100697.97;5044150;28;20113;-57
2022/01/12 11:44:44;;;;;;;10.65;6.07;;;;;;;-10.17;61.51;100704.25;5045428;28;20104;-57
2022/01/12 11:47:18;;;;;;;9.75;5.65;;;;;;;-10.23;62.44;100710.50;5046873;28;20037;-57
2022/01/12 11:49:46;;;;;;;9.23;5.78;;;;;;;-10.57;62.83;100653.56;5045894;28;20076;-58
2022/01/12 11:52:24;;;;;;;8.27;4.82;;;;;;;-10.19;63.48;100681.53;5046459;28;20025;-58
2022/01/12 11:54:53;;;;;;;10.30;5.40;;;;;;;-10.53;61.65;100628.03;5045511;28;20075;-58
2022/01/12 11:57:34;;;;;;;11.43;6.35;;;;;;;-10.04;61.50;100706.06;5044172;28;20316;-58
2022/01/12 12:00:13;;;;;;;10.45;6.15;;;;;;;-10.10;61.94;100727.34;5046182;28;20326;-58
2022/01/12 12:02:40;;;;;;;13.20;5.75;;;;;;;-10.38;61.49;100711.84;5041954;28;20033;-58
2022/01/12 12:05:19;;;;;;;11.07;5.95;;;;;;;-10.39;64.21;100705.06;5052732;28;20322;-57
2022/01/12 12:07:52;;;;;;;11.10;6.25;;;;;;;-10.39;62.65;100705.06;5046456;28;20037;-59
2022/01/12 12:10:24;;;;;;;12.35;6.22;;;;;;;-10.79;61.90;100651.88;5051018;28;20059;-58
2022/01/12 12:12:52;;;;;;;11.35;6.10;;;;;;;-10.42;63.58;100697.31;5057196;28;20061;-57
2022/01/12 12:15:18;;;;;;;11.18;5.45;;;;;;;-10.48;64.19;100701.84;5052208;28;20100;-58
2022/01/12 12:17:44;;;;;;;9.23;5.30;;;;;;;-10.38;63.08;100689.31;5046400;28;20334;-58
2022/01/12 12:20:15;;;;;;;15.73;6.20;;;;;;;-10.69;62.56;100635.97;5059373;28;20063;-57
2022/01/12 12:22:43;;;;;;;10.38;5.50;;;;;;;-10.98;63.14;100632.03;5050985;28;20260;-58
2022/01/12 12:25:17;;;;;;;9.50;5.47;;;;;;;-11.03;64.20;100610.78;5046697;28;20036;-56
2022/01/12 12:27:45;;;;;;;8.63;4.93;;;;;;;-10.67;63.08;100675.38;5044995;28;20112;-57
2022/01/12 12:30:17;;;;;;;7.20;4.80;;;;;;;-10.54;64.98;100697.25;5043145;28;20021;-57
2022/01/12 12:32:44;;;;;;;8.43;4.88;;;;;;;-10.76;63.94;100644.59;5047453;28;20033;-57
2022/01/12 12:35:21;;;;;;;5.95;4.15;;;;;;;-10.75;64.91;100676.38;5045212;28;20035;-57